Aberdeen, Washington
Current Conditions -  °F | °C
As of 5:53 PM on Wednesday 17 Dec 2014 (Local Time) from KHQM Reporting Station
Overcast Overcast  
Wind Chill: 44°   Ceiling: 2800
Heat Index: 46°   Visibility: 7mi
Dew Point: 45°   Wind: 5mph
Humidity: 96%   Direction: 70°ENE
Pressure: 29.87"   Gusts: NA
Location:  46.98°N, 123.81°W
Report Text: KHQM 180153Z AUTO 07004KT 7SM OVC028 08/07 A2987 RMK AO2 SLP118 T00780072
Loading
Personal Weather Stations






























Interactive Weather Map New forecast layout! Learn more

10-Day Weather Forecast

Advertisements
Track Severe Weather on mobile